createdAt,value
2022-12-01T00:00:32.427Z,99.55
2022-12-01T00:04:09.817Z,99.31
2022-12-01T00:07:49.755Z,99.65
2022-12-01T00:11:25.217Z,99.65
2022-12-01T00:15:03.145Z,99.63
2022-12-01T00:18:41.051Z,99.70
2022-12-01T00:22:18.315Z,99.73
2022-12-01T00:26:02.902Z,99.56
2022-12-01T00:29:33.754Z,99.69
2022-12-01T00:33:11.664Z,99.57
2022-12-01T00:36:49.776Z,99.03
2022-12-01T00:40:26.866Z,99.32
2022-12-01T00:44:05.184Z,99.33
2022-12-01T00:47:42.278Z,99.27
2022-12-01T00:51:19.978Z,99.12
2022-12-01T00:54:57.685Z,99.11
2022-12-01T00:58:35.387Z,99.26
2022-12-01T01:02:13.736Z,98.72
2022-12-01T01:05:50.694Z,98.92
2022-12-01T01:09:28.705Z,99.00
2022-12-01T01:13:06.408Z,98.93
2022-12-01T01:16:43.924Z,99.01
2022-12-01T01:20:21.713Z,98.91
2022-12-01T01:23:59.417Z,99.00
2022-12-01T01:27:36.918Z,98.95
2022-12-01T01:31:18.604Z,99.00
2022-12-01T01:34:52.326Z,99.09
2022-12-01T01:38:30.439Z,99.10
2022-12-01T01:42:13.059Z,99.06
2022-12-01T01:45:45.484Z,99.27
2022-12-01T01:49:23.245Z,99.54
2022-12-01T01:53:10.978Z,99.12
2022-12-01T01:56:38.551Z,98.99
2022-12-01T02:00:19.631Z,99.17
2022-12-01T02:03:55.034Z,99.14
2022-12-01T02:07:32.319Z,99.06
2022-12-01T02:11:48.695Z,98.98
2022-12-01T02:15:17.996Z,99.05
2022-12-01T02:18:52.237Z,98.96
2022-12-01T02:22:30.229Z,99.05
2022-12-01T02:26:01.742Z,99.00
2022-12-01T02:29:39.085Z,98.77
2022-12-01T02:33:19.350Z,98.79
2022-12-01T02:36:58.592Z,98.63
2022-12-01T02:40:36.191Z,98.57
2022-12-01T02:44:11.849Z,98.65
2022-12-01T02:47:41.461Z,98.62
2022-12-01T02:51:24.689Z,98.45
2022-12-01T02:54:54.731Z,97.84
2022-12-01T02:58:31.913Z,98.32
2022-12-01T03:02:33.677Z,98.38
2022-12-01T03:06:14.661Z,98.39
2022-12-01T03:09:56.152Z,98.39
2022-12-01T03:13:29.704Z,98.26
2022-12-01T03:16:44.353Z,98.39
2022-12-01T03:20:28.981Z,98.57
2022-12-01T03:24:09.235Z,98.31
2022-12-01T03:28:00.656Z,98.56
2022-12-01T03:31:20.278Z,98.64
2022-12-01T03:34:58.834Z,98.79
2022-12-01T03:38:33.568Z,98.68
2022-12-01T03:42:40.610Z,98.64
2022-12-01T03:46:07.865Z,98.89
2022-12-01T03:49:29.192Z,99.06
2022-12-01T03:53:19.515Z,99.11
2022-12-01T03:56:49.411Z,99.00
2022-12-01T04:00:23.008Z,99.21
2022-12-01T04:04:12.701Z,99.14
2022-12-01T04:07:39.491Z,99.13
2022-12-01T04:11:33.449Z,98.86
2022-12-01T04:14:52.606Z,99.16
2022-12-01T04:18:30.312Z,98.95
2022-12-01T04:22:07.913Z,99.20
2022-12-01T04:25:45.475Z,99.01
2022-12-01T04:29:23.525Z,99.12
2022-12-01T04:33:01.028Z,99.17
2022-12-01T04:36:38.730Z,99.27
2022-12-01T04:40:16.639Z,99.35
2022-12-01T04:43:54.856Z,99.17
2022-12-01T04:47:32.047Z,99.12
2022-12-01T04:51:09.852Z,99.03
2022-12-01T04:54:47.251Z,99.04
2022-12-01T04:58:24.966Z,99.07
2022-12-01T05:02:04.382Z,99.14
2022-12-01T05:05:40.181Z,99.25
2022-12-01T05:09:20.115Z,98.64
2022-12-01T05:12:57.921Z,98.85
2022-12-01T05:16:34.300Z,98.63
2022-12-01T05:20:38.835Z,98.47
2022-12-01T05:23:49.192Z,98.52
2022-12-01T05:27:26.793Z,98.59
2022-12-01T05:31:04.748Z,98.41
2022-12-01T05:34:42.200Z,98.66
2022-12-01T05:38:20.828Z,98.51
2022-12-01T05:41:57.712Z,98.60
2022-12-01T05:45:36.179Z,98.45
2022-12-01T05:49:13.017Z,98.56
2022-12-01T05:52:50.825Z,98.54
2022-12-01T05:56:28.380Z,98.56
2022-12-01T06:00:07.257Z,98.50
2022-12-01T06:03:43.903Z,98.50
2022-12-01T06:07:23.596Z,98.41
2022-12-01T06:10:59.242Z,98.49
2022-12-01T06:14:36.948Z,98.73
2022-12-01T06:18:14.548Z,98.72
2022-12-01T06:21:54.711Z,98.87
2022-12-01T06:25:30.062Z,98.69
2022-12-01T06:29:07.765Z,98.48
2022-12-01T06:32:45.366Z,98.63
2022-12-01T06:36:23.069Z,98.54
2022-12-01T06:40:01.295Z,98.56
2022-12-01T06:43:38.791Z,98.44
2022-12-01T06:47:16.181Z,98.76
2022-12-01T06:51:00.192Z,98.32
2022-12-01T06:54:31.692Z,98.60
2022-12-01T06:58:09.191Z,98.30
2022-12-01T07:01:47.162Z,98.43
2022-12-01T07:05:24.703Z,98.54
2022-12-01T07:09:02.924Z,98.33
2022-12-01T07:12:40.931Z,97.25
2022-12-01T07:16:17.864Z,97.27
2022-12-01T07:19:55.726Z,97.60
2022-12-01T07:23:33.838Z,97.74
2022-12-01T07:27:10.930Z,97.78
2022-12-01T07:30:48.776Z,97.51
2022-12-01T07:34:26.297Z,97.28
2022-12-01T07:38:04.041Z,97.00
2022-12-01T07:41:41.642Z,97.13
2022-12-01T07:45:19.347Z,97.02
2022-12-01T07:48:58.456Z,97.00
2022-12-01T07:52:34.753Z,96.88
2022-12-01T07:56:14.347Z,96.49
2022-12-01T07:59:50.837Z,96.84
2022-12-01T08:03:27.868Z,96.32
2022-12-01T08:07:05.469Z,96.61
2022-12-01T08:10:43.172Z,97.02
2022-12-01T08:14:20.979Z,97.17
2022-12-01T08:18:01.039Z,96.97
2022-12-01T08:21:37.737Z,97.07
2022-12-01T08:25:14.502Z,96.87
2022-12-01T08:28:51.898Z,96.62
2022-12-01T08:32:29.910Z,96.34
2022-12-01T08:36:08.054Z,96.43
2022-12-01T08:39:44.807Z,96.71
2022-12-01T08:43:49.467Z,96.64
2022-12-01T08:47:00.102Z,96.70
2022-12-01T08:50:37.853Z,96.81
2022-12-01T08:54:16.750Z,96.98
2022-12-01T08:57:53.226Z,96.57
2022-12-01T09:01:32.747Z,96.54
2022-12-01T09:05:09.045Z,96.68
2022-12-01T09:08:47.114Z,96.62
2022-12-01T09:12:24.144Z,96.90
2022-12-01T09:16:07.046Z,96.85
2022-12-01T09:19:39.653Z,96.93
2022-12-01T09:23:17.255Z,96.56
2022-12-01T09:26:56.700Z,96.60
2022-12-01T09:30:40.011Z,96.12
2022-12-01T09:34:17.945Z,96.03
2022-12-01T09:37:48.072Z,96.00
2022-12-01T09:41:30.180Z,95.42
2022-12-01T09:45:05.149Z,96.00
2022-12-01T09:48:46.303Z,95.90
2022-12-01T09:52:27.838Z,95.41
2022-12-01T09:56:04.859Z,96.23
2022-12-01T09:59:41.724Z,97.76
2022-12-01T10:03:30.638Z,95.22
2022-12-01T10:06:57.350Z,94.02
2022-12-01T10:10:36.215Z,94.29
2022-12-01T10:14:19.457Z,94.72
2022-12-01T10:17:42.717Z,94.11
2022-12-01T10:21:22.984Z,94.40
2022-12-01T10:25:11.434Z,94.54
2022-12-01T10:29:02.864Z,93.89
2022-12-01T10:32:23.566Z,94.46
2022-12-01T10:35:51.717Z,94.28
2022-12-01T10:39:37.492Z,94.64
2022-12-01T10:43:10.234Z,94.55
2022-12-01T10:46:50.287Z,94.26
2022-12-01T10:50:30.761Z,93.99
2022-12-01T10:54:08.072Z,94.00
2022-12-01T10:57:37.872Z,94.00
2022-12-01T11:01:24.001Z,94.35
2022-12-01T11:04:57.888Z,93.95
2022-12-01T11:08:41.662Z,93.97
2022-12-01T11:12:16.369Z,93.64
2022-12-01T11:16:00.034Z,94.14
2022-12-01T11:19:28.785Z,94.22
2022-12-01T11:23:10.298Z,94.51
2022-12-01T11:26:38.993Z,94.82
2022-12-01T11:30:31.647Z,94.03
2022-12-01T11:33:56.342Z,94.50
2022-12-01T11:41:28.957Z,94.82
2022-12-01T11:45:22.536Z,94.58
2022-12-01T11:48:37.394Z,95.12
2022-12-01T11:52:28.110Z,95.21
2022-12-01T11:55:47.998Z,95.70
2022-12-01T11:59:29.390Z,98.28
2022-12-01T12:03:34.189Z,100.00
2022-12-01T12:07:15.619Z,99.44
2022-12-01T12:10:51.925Z,94.72
2022-12-01T12:14:28.979Z,92.47
2022-12-01T12:17:57.077Z,92.57
2022-12-01T12:21:39.064Z,93.03
2022-12-01T12:25:11.754Z,93.48
2022-12-01T12:28:57.337Z,93.80
2022-12-01T12:32:33.932Z,94.92
2022-12-01T12:36:19.505Z,95.05
2022-12-01T12:39:42.780Z,95.25
2022-12-01T12:43:39.219Z,95.48
2022-12-01T12:47:04.630Z,95.93
2022-12-01T12:50:45.100Z,96.02
2022-12-01T12:54:21.097Z,96.26
2022-12-01T12:57:55.168Z,96.55
2022-12-01T13:01:37.007Z,96.66
2022-12-01T13:05:16.632Z,96.95
2022-12-01T13:08:41.997Z,97.07
2022-12-01T13:12:25.080Z,97.37
2022-12-01T13:15:54.730Z,97.44
2022-12-01T13:19:33.658Z,97.58
2022-12-01T13:23:14.912Z,97.62
2022-12-01T13:26:48.935Z,97.67
2022-12-01T13:30:26.329Z,97.92
2022-12-01T13:34:02.682Z,97.62
2022-12-01T13:37:39.075Z,98.01
2022-12-01T13:41:39.617Z,97.77
2022-12-01T13:44:59.841Z,97.96
2022-12-01T13:48:52.154Z,98.20
2022-12-01T13:52:23.514Z,98.09
2022-12-01T13:56:04.124Z,98.34
2022-12-01T14:00:03.394Z,98.48
2022-12-01T14:03:22.398Z,98.43
2022-12-01T14:07:15.822Z,98.68
2022-12-01T14:10:38.073Z,98.51
2022-12-01T14:14:25.963Z,98.66
2022-12-01T14:18:20.105Z,98.69
2022-12-01T14:22:04.568Z,99.00
2022-12-01T14:25:23.539Z,98.78
2022-12-01T14:28:54.993Z,98.64
2022-12-01T14:32:29.929Z,98.67
2022-12-01T14:36:34.258Z,98.38
2022-12-01T14:39:52.145Z,98.31
2022-12-01T14:43:45.664Z,98.40
2022-12-01T14:47:11.191Z,97.89
2022-12-01T14:50:49.525Z,97.79
2022-12-01T14:54:26.252Z,97.35
2022-12-01T14:58:04.508Z,97.07
2022-12-01T15:01:36.273Z,96.51
2022-12-01T15:05:19.612Z,94.39
2022-12-01T15:09:31.453Z,94.86
2022-12-01T15:12:34.035Z,94.64
2022-12-01T15:16:19.326Z,94.08
2022-12-01T15:19:52.214Z,93.92
2022-12-01T15:23:28.171Z,93.64
2022-12-01T15:27:24.267Z,93.60
2022-12-01T15:30:45.589Z,94.87
2022-12-01T15:34:24.562Z,93.51
2022-12-01T15:37:59.562Z,92.85
2022-12-01T15:41:39.825Z,92.75
2022-12-01T15:45:22.138Z,92.46
2022-12-01T15:49:07.027Z,92.90
2022-12-01T15:52:29.559Z,94.52
2022-12-01T15:56:10.042Z,92.94
2022-12-01T15:59:47.120Z,92.35
2022-12-01T16:03:22.169Z,91.93
2022-12-01T16:07:04.677Z,91.95
2022-12-01T16:10:37.778Z,91.62
2022-12-01T16:14:24.868Z,92.84
2022-12-01T16:17:54.103Z,93.71
2022-12-01T16:21:44.606Z,94.40
2022-12-01T16:25:22.094Z,93.90
2022-12-01T16:28:45.782Z,94.42
2022-12-01T16:32:42.335Z,94.89
2022-12-01T16:36:03.749Z,93.32
2022-12-01T16:39:39.303Z,94.92
2022-12-01T16:43:22.396Z,96.56
2022-12-01T16:46:54.220Z,95.38
2022-12-01T16:50:31.940Z,89.56
2022-12-01T16:54:10.511Z,87.61
2022-12-01T16:57:47.969Z,86.94
2022-12-01T17:01:25.694Z,87.41
2022-12-01T17:05:02.822Z,87.55
2022-12-01T17:08:40.938Z,87.96
2022-12-01T17:12:18.230Z,88.25
2022-12-01T17:15:56.499Z,89.07
2022-12-01T17:19:33.639Z,88.85
2022-12-01T17:23:11.956Z,89.57
2022-12-01T17:26:49.290Z,89.48
2022-12-01T17:30:27.660Z,89.13
2022-12-01T17:34:04.353Z,89.07
2022-12-01T17:37:44.109Z,89.24
2022-12-01T17:44:22.653Z,89.56
2022-12-01T17:48:00.019Z,88.74
2022-12-01T17:51:56.543Z,88.67
2022-12-01T17:55:26.206Z,88.97
2022-12-01T17:59:03.706Z,88.96
2022-12-01T18:02:41.571Z,89.11
2022-12-01T18:06:20.141Z,89.20
2022-12-01T18:09:56.920Z,88.90
2022-12-01T18:14:06.539Z,89.39
2022-12-01T18:17:52.369Z,89.54
2022-12-01T18:21:29.642Z,89.43
2022-12-01T18:25:08.738Z,89.19
2022-12-01T18:28:45.081Z,89.21
2022-12-01T18:32:22.470Z,89.22
2022-12-01T18:36:00.482Z,88.82
2022-12-01T18:39:38.595Z,88.74
2022-12-01T18:43:15.683Z,88.62
2022-12-01T18:46:53.277Z,88.23
2022-12-01T18:50:31.429Z,87.90
2022-12-01T18:54:12.790Z,87.27
2022-12-01T18:57:46.294Z,87.64
2022-12-01T19:01:53.585Z,87.80
2022-12-01T19:05:24.845Z,87.84
2022-12-01T19:09:04.996Z,87.79
2022-12-01T19:12:41.247Z,87.92
2022-12-01T19:16:20.103Z,87.49
2022-12-01T19:19:54.844Z,87.41
2022-12-01T19:23:33.264Z,87.96
2022-12-01T19:27:10.354Z,87.98
2022-12-01T19:30:48.443Z,88.02
2022-12-01T19:34:26.171Z,88.28
2022-12-01T19:38:03.471Z,88.60
2022-12-01T19:41:41.178Z,88.75
2022-12-01T19:45:18.672Z,88.63
2022-12-01T19:49:01.370Z,88.51
2022-12-01T19:52:36.227Z,88.82
2022-12-01T19:56:12.324Z,88.66
2022-12-01T19:59:49.412Z,88.63
2022-12-01T20:03:27.193Z,88.73
2022-12-01T20:07:05.306Z,88.35
2022-12-01T20:10:49.118Z,88.95
2022-12-01T20:14:20.304Z,88.55
2022-12-01T20:17:58.009Z,88.80
2022-12-01T20:21:42.353Z,88.58
2022-12-01T20:25:13.517Z,88.81
2022-12-01T20:28:52.654Z,88.95
2022-12-01T20:32:29.438Z,89.39
2022-12-01T20:36:08.168Z,89.19
2022-12-01T20:39:44.441Z,89.65
2022-12-01T20:43:21.938Z,89.63
2022-12-01T20:46:59.845Z,89.74
2022-12-01T20:50:38.619Z,89.49
2022-12-01T20:54:32.460Z,89.46
2022-12-01T20:58:05.939Z,90.01
2022-12-01T21:01:40.927Z,89.77
2022-12-01T21:05:18.506Z,89.95
2022-12-01T21:08:56.516Z,89.95
2022-12-01T21:12:53.882Z,89.67
2022-12-01T21:17:43.172Z,89.61
2022-12-01T21:21:31.770Z,89.50
2022-12-01T21:25:23.052Z,89.81
2022-12-01T21:29:23.349Z,89.67
2022-12-01T21:33:28.497Z,89.37
2022-12-01T21:37:24.532Z,88.88
2022-12-01T21:41:26.934Z,89.26
2022-12-01T21:45:17.725Z,89.16
2022-12-01T21:49:01.266Z,89.45
2022-12-01T21:52:46.138Z,89.19
2022-12-01T21:56:31.781Z,89.49
2022-12-01T22:02:49.127Z,93.97
2022-12-01T22:06:39.476Z,98.66
2022-12-01T22:10:59.061Z,90.94
2022-12-01T22:14:41.588Z,88.73
2022-12-01T22:18:29.729Z,88.82
2022-12-01T22:22:18.423Z,89.17
2022-12-01T22:26:01.317Z,88.93
2022-12-01T22:29:46.292Z,89.64
2022-12-01T22:33:29.729Z,89.91
2022-12-01T22:37:25.047Z,90.34
2022-12-01T22:41:13.696Z,90.51
2022-12-01T22:44:59.808Z,90.52
2022-12-01T22:48:49.186Z,90.42
2022-12-01T22:52:31.091Z,90.29
2022-12-01T22:56:39.922Z,90.63
2022-12-01T23:00:23.568Z,91.20
2022-12-01T23:04:28.407Z,91.17
2022-12-01T23:08:16.133Z,91.21
2022-12-01T23:12:10.744Z,91.38
2022-12-01T23:15:56.351Z,91.53
2022-12-01T23:19:38.885Z,91.85
2022-12-01T23:23:27.309Z,92.21
2022-12-01T23:27:09.827Z,92.87
2022-12-01T23:30:57.015Z,92.94
2022-12-01T23:34:39.571Z,93.13
2022-12-01T23:38:29.459Z,93.43
2022-12-01T23:42:12.753Z,93.27
2022-12-01T23:46:07.802Z,93.76
2022-12-01T23:49:59.843Z,93.22
2022-12-01T23:53:43.079Z,93.39
2022-12-01T23:57:25.338Z,93.42
